KMFI/MFI METAR and TAF weather

Enter ICAO airport designator
Station Type Date Time Source
KMFI METAR 2020/01/19 22:54 UTC NOAA

KMFI 192254Z AUTO 30011KT 10SM OVC027 M09/M13 A3039 RMK AO2 SLP320 T10891128


Station Type Date Time Source
KMFI Decoded METAR 2020/01/19 22:54 UTC NOAA

MARSHFIELD MUNICIPAL AIRPORT, WI, United States (KMFI) 44-38N 90-11W 379M
Jan 19, 2020 - 05:54 PM EST / 2020.01.19 2254 UTC
Wind: from the WNW (300 degrees) at 13 MPH (11 KT):0
Visibility: 10 mile(s):0
Sky conditions: overcast
Temperature: 16.0 F (-8.9 C)
Windchill: 1 F (-17 C):1
Dew Point: 9.0 F (-12.8 C)
Relative Humidity: 73%
Pressure (altimeter): 30.39 in. Hg (1029 hPa)
ob: KMFI 192254Z AUTO 30011KT 10SM OVC027 M09/M13 A3039 RMK AO2 SLP320 T10891128
cycle: 23

Station Type Date Time Source
KMFI TAF UTC NOAA

Error!

Example: see airport list